Time;durP1;ratioP1;P1;durP2;ratioP2;P2;SDS_P1;SDS_P2;PMS_P1;PMS_P2;Temp;Humidity;BMP_temperature;BMP_pressure;BME280_temperature;BME280_humidity;BME280_pressure;Samples;Min_cycle;Max_cycle;Signal;HPM_P1;HPM_P2
2024/01/14 00:00:09;;;;;;;5.57;2.85;;;3.20;63.40;;;;;;4988172;28;20048;-75
2024/01/14 00:02:36;;;;;;;4.85;3.10;;;3.20;63.30;;;;;;4986901;28;20065;-75
2024/01/14 00:05:02;;;;;;;4.10;2.90;;;3.20;63.20;;;;;;5000660;28;20038;-76
2024/01/14 00:07:28;;;;;;;6.28;3.15;;;3.20;63.20;;;;;;5001767;28;20040;-75
2024/01/14 00:09:55;;;;;;;4.97;3.30;;;3.20;63.30;;;;;;5001106;28;20397;-77
2024/01/14 00:12:21;;;;;;;6.32;2.97;;;3.20;63.10;;;;;;4999989;28;21396;-76
2024/01/14 00:14:47;;;;;;;4.97;2.67;;;3.10;63.00;;;;;;5001131;28;20033;-75
2024/01/14 00:17:14;;;;;;;6.05;3.10;;;3.10;62.90;;;;;;5003907;28;20040;-76
2024/01/14 00:19:40;;;;;;;4.65;2.58;;;3.10;63.10;;;;;;5000765;28;20403;-77
2024/01/14 00:22:06;;;;;;;4.78;2.83;;;3.10;63.10;;;;;;5001579;28;20045;-75
2024/01/14 00:24:32;;;;;;;4.85;2.70;;;3.10;63.20;;;;;;5000771;28;20392;-75
2024/01/14 00:26:58;;;;;;;5.40;2.97;;;3.10;63.30;;;;;;5002556;28;20590;-75
2024/01/14 00:29:24;;;;;;;3.50;2.67;;;3.10;63.00;;;;;;5004604;28;20046;-76
2024/01/14 00:31:50;;;;;;;3.97;2.58;;;3.10;63.20;;;;;;4987302;28;20049;-76
2024/01/14 00:34:16;;;;;;;4.97;2.83;;;3.10;63.30;;;;;;4988909;28;20038;-76
2024/01/14 00:36:42;;;;;;;4.07;2.60;;;3.10;63.10;;;;;;5001317;28;20037;-76
2024/01/14 00:39:08;;;;;;;3.78;2.60;;;3.10;63.00;;;;;;5000022;28;20468;-75
2024/01/14 00:41:34;;;;;;;5.28;3.03;;;3.10;63.00;;;;;;5000831;28;20483;-76
2024/01/14 00:44:00;;;;;;;5.65;3.33;;;3.10;62.90;;;;;;4987455;28;20031;-76
2024/01/14 00:46:27;;;;;;;4.63;2.85;;;3.10;62.90;;;;;;5000689;28;20033;-75
2024/01/14 00:48:53;;;;;;;4.75;2.78;;;3.10;62.50;;;;;;5001979;28;20037;-76
2024/01/14 00:51:19;;;;;;;4.60;2.63;;;3.10;62.50;;;;;;5000601;28;20382;-76
2024/01/14 00:53:45;;;;;;;5.78;3.25;;;3.10;62.80;;;;;;5001282;28;20141;-76
2024/01/14 00:56:12;;;;;;;3.67;2.55;;;3.10;62.90;;;;;;4999010;28;20124;-76
2024/01/14 00:58:38;;;;;;;4.95;3.30;;;3.10;62.90;;;;;;5002624;28;20739;-76
2024/01/14 01:01:04;;;;;;;5.60;3.33;;;3.10;63.00;;;;;;5016727;28;20395;-76
2024/01/14 01:03:30;;;;;;;7.22;3.20;;;3.10;63.10;;;;;;5001854;28;20174;-76
2024/01/14 01:05:56;;;;;;;5.13;3.08;;;3.20;63.10;;;;;;5001086;28;20049;-76
2024/01/14 01:08:22;;;;;;;5.95;3.15;;;3.10;63.20;;;;;;5003468;28;20576;-75
2024/01/14 01:10:49;;;;;;;5.95;2.97;;;3.10;63.10;;;;;;5001704;28;20117;-76
2024/01/14 01:13:15;;;;;;;5.78;3.08;;;3.10;63.30;;;;;;4987578;28;20061;-76
2024/01/14 01:15:41;;;;;;;4.57;3.20;;;3.10;63.40;;;;;;4999797;28;20037;-75
2024/01/14 01:18:07;;;;;;;5.45;3.17;;;3.10;63.60;;;;;;5001007;28;20038;-77
2024/01/14 01:20:36;;;;;;;6.47;3.65;;;3.10;63.40;;;;;;4989028;28;20034;-77
2024/01/14 01:23:02;;;;;;;6.88;3.72;;;3.10;63.40;;;;;;5003853;28;20488;-77
2024/01/14 01:25:28;;;;;;;5.38;3.40;;;3.10;63.40;;;;;;5004547;28;20084;-77
2024/01/14 01:27:54;;;;;;;8.70;3.72;;;3.10;63.30;;;;;;5008039;28;20057;-77
2024/01/14 01:30:21;;;;;;;7.03;3.58;;;3.10;63.30;;;;;;5008040;28;20471;-77
2024/01/14 01:32:47;;;;;;;5.35;3.45;;;3.10;63.30;;;;;;5002089;28;20037;-78
2024/01/14 01:35:13;;;;;;;6.95;3.47;;;3.10;63.40;;;;;;5003419;28;20042;-76
2024/01/14 01:37:39;;;;;;;7.03;3.85;;;3.10;63.30;;;;;;5006891;28;20844;-77
2024/01/14 01:40:06;;;;;;;6.85;3.72;;;3.10;63.50;;;;;;5006209;28;20034;-77
2024/01/14 01:42:34;;;;;;;6.75;3.97;;;3.10;63.30;;;;;;5008523;28;20069;-79
2024/01/14 01:45:00;;;;;;;6.28;4.13;;;3.10;63.10;;;;;;5004604;28;20040;-77
2024/01/14 01:47:26;;;;;;;5.03;3.60;;;3.10;63.30;;;;;;5003612;28;20076;-78
2024/01/14 01:49:52;;;;;;;5.88;3.38;;;3.10;62.80;;;;;;4974938;28;20373;-78
2024/01/14 01:52:19;;;;;;;6.97;4.20;;;3.10;62.90;;;;;;4985992;28;20065;-77
2024/01/14 01:54:47;;;;;;;6.43;3.60;;;3.10;62.90;;;;;;5003816;28;20026;-78
2024/01/14 01:57:14;;;;;;;6.70;3.90;;;3.10;63.00;;;;;;5004812;28;20044;-79
2024/01/14 01:59:43;;;;;;;6.35;3.75;;;3.10;63.00;;;;;;5005065;28;20095;-77
2024/01/14 02:02:10;;;;;;;6.60;3.95;;;3.10;63.00;;;;;;5003393;28;20042;-77
2024/01/14 02:04:36;;;;;;;7.90;4.32;;;3.10;62.90;;;;;;5004507;28;20510;-79
2024/01/14 02:07:03;;;;;;;8.55;4.15;;;3.10;63.00;;;;;;5004107;28;20045;-77
2024/01/14 02:09:29;;;;;;;9.27;4.90;;;3.10;62.80;;;;;;5004426;28;20030;-76
2024/01/14 02:11:55;;;;;;;6.18;3.88;;;3.10;62.90;;;;;;5002035;28;20038;-77
2024/01/14 02:14:21;;;;;;;7.22;4.03;;;3.10;63.00;;;;;;5001038;28;20030;-79
2024/01/14 02:16:47;;;;;;;8.35;4.15;;;3.10;63.10;;;;;;4991152;28;20117;-77
2024/01/14 02:19:13;;;;;;;8.85;4.30;;;3.10;63.30;;;;;;4990639;28;20040;-77
2024/01/14 02:21:45;;;;;;;5.15;3.47;;;3.10;63.40;;;;;;5003102;28;20484;-76
2024/01/14 02:24:29;;;;;;;8.32;4.03;;;3.10;63.50;;;;;;5002542;28;20038;-77
2024/01/14 02:26:56;;;;;;;6.30;4.28;;;3.10;63.60;;;;;;5003658;28;20041;-77
2024/01/14 02:29:22;;;;;;;10.10;4.30;;;3.10;63.60;;;;;;5003487;28;20069;-77
2024/01/14 02:31:48;;;;;;;7.28;3.95;;;3.00;63.50;;;;;;5002955;28;20038;-77
2024/01/14 02:34:15;;;;;;;7.78;3.50;;;3.10;63.50;;;;;;5003227;28;20068;-76
2024/01/14 02:36:41;;;;;;;6.68;3.95;;;3.10;63.50;;;;;;5007063;28;20077;-77
2024/01/14 02:39:07;;;;;;;4.97;3.40;;;3.00;63.40;;;;;;5009205;28;20030;-77
2024/01/14 02:41:34;;;;;;;6.88;3.92;;;3.00;63.40;;;;;;5002952;28;20140;-77
2024/01/14 02:44:00;;;;;;;5.57;4.30;;;3.00;63.40;;;;;;5001085;28;20038;-76
2024/01/14 02:46:29;;;;;;;5.63;3.90;;;3.00;63.40;;;;;;4985096;28;20026;-76
2024/01/14 02:48:57;;;;;;;5.90;3.78;;;3.00;63.50;;;;;;5002686;28;20479;-76
2024/01/14 02:51:23;;;;;;;6.90;3.40;;;3.00;63.40;;;;;;5006059;28;20080;-76
2024/01/14 02:53:49;;;;;;;5.07;3.35;;;3.00;63.60;;;;;;5005533;28;20054;-76
2024/01/14 02:56:15;;;;;;;6.90;4.05;;;3.00;63.40;;;;;;4989227;28;20432;-77
2024/01/14 02:58:41;;;;;;;7.25;3.72;;;3.00;63.40;;;;;;5002062;28;20046;-77
2024/01/14 03:01:07;;;;;;;6.32;4.13;;;3.00;63.10;;;;;;5000896;28;20464;-77
2024/01/14 03:03:33;;;;;;;7.63;3.65;;;3.00;63.40;;;;;;5002525;28;20034;-77
2024/01/14 03:05:59;;;;;;;5.03;3.55;;;3.00;63.40;;;;;;4990161;28;20045;-78
2024/01/14 03:08:25;;;;;;;7.57;3.95;;;3.00;63.30;;;;;;5006641;28;20450;-76
2024/01/14 03:10:51;;;;;;;6.07;3.47;;;3.00;63.20;;;;;;5001860;28;20037;-76
2024/01/14 03:13:17;;;;;;;7.40;3.65;;;3.00;63.10;;;;;;4988629;28;20042;-76
2024/01/14 03:15:43;;;;;;;7.57;4.00;;;3.00;63.00;;;;;;5006382;28;20095;-77
2024/01/14 03:18:11;;;;;;;5.97;3.50;;;3.00;63.60;;;;;;5001778;28;20034;-78
2024/01/14 03:20:37;;;;;;;7.70;3.88;;;3.00;63.00;;;;;;5001549;28;20033;-76
2024/01/14 03:23:04;;;;;;;6.88;3.75;;;3.00;62.90;;;;;;5002687;28;20038;-78
2024/01/14 03:25:30;;;;;;;6.25;3.63;;;3.00;62.90;;;;;;4973557;28;20034;-78
2024/01/14 03:27:57;;;;;;;5.75;3.58;;;3.00;62.90;;;;;;5003129;28;20384;-77
2024/01/14 03:30:23;;;;;;;7.35;3.83;;;3.00;62.80;;;;;;5003141;28;20034;-78
2024/01/14 03:32:49;;;;;;;6.10;3.70;;;3.00;62.90;;;;;;4987979;28;20038;-77
2024/01/14 03:35:15;;;;;;;6.75;3.67;;;3.00;62.90;;;;;;5001205;28;20049;-79
2024/01/14 03:37:41;;;;;;;5.78;3.40;;;3.00;62.80;;;;;;5001820;28;20489;-77
2024/01/14 03:40:07;;;;;;;6.32;4.03;;;3.00;62.90;;;;;;5001088;28;20038;-78
2024/01/14 03:42:33;;;;;;;6.07;3.30;;;3.00;63.10;;;;;;5001518;28;20026;-78
2024/01/14 03:44:59;;;;;;;5.22;2.85;;;3.00;63.10;;;;;;5004768;28;20038;-77
2024/01/14 03:47:25;;;;;;;4.70;2.75;;;3.00;63.30;;;;;;5001994;28;20050;-77
2024/01/14 03:49:51;;;;;;;6.35;3.97;;;3.00;63.40;;;;;;5001659;28;20447;-78
2024/01/14 03:52:17;;;;;;;6.22;3.40;;;3.00;63.40;;;;;;5000623;28;20057;-77
2024/01/14 03:54:43;;;;;;;6.10;3.55;;;3.00;63.60;;;;;;5001298;28;20496;-77
2024/01/14 03:57:09;;;;;;;5.45;3.15;;;3.00;63.40;;;;;;5001729;28;20026;-78
2024/01/14 03:59:37;;;;;;;5.88;3.40;;;3.00;63.50;;;;;;5003752;28;20125;-77
2024/01/14 04:02:03;;;;;;;4.72;3.03;;;3.00;63.50;;;;;;5000691;28;20034;-78
2024/01/14 04:04:29;;;;;;;6.35;3.42;;;3.00;63.60;;;;;;5002041;28;20050;-77
2024/01/14 04:06:55;;;;;;;7.25;3.50;;;3.00;63.40;;;;;;5003859;28;20572;-77
2024/01/14 04:09:21;;;;;;;4.93;3.38;;;3.00;63.50;;;;;;4999701;28;20034;-77
2024/01/14 04:11:48;;;;;;;5.97;3.55;;;3.00;63.50;;;;;;5001238;28;20104;-78
2024/01/14 04:14:14;;;;;;;5.90;3.72;;;3.00;63.50;;;;;;4988504;28;20053;-78
2024/01/14 04:16:41;;;;;;;5.95;3.40;;;3.00;63.40;;;;;;5002489;28;20050;-77
2024/01/14 04:19:07;;;;;;;6.13;4.13;;;3.00;63.30;;;;;;4988867;28;20057;-78
2024/01/14 04:21:34;;;;;;;5.82;3.30;;;3.00;63.10;;;;;;4999939;28;20030;-79
2024/01/14 04:24:02;;;;;;;5.40;3.45;;;3.00;63.20;;;;;;4999943;28;20038;-77
2024/01/14 04:26:28;;;;;;;3.72;3.10;;;3.00;63.30;;;;;;5000072;28;20702;-78
2024/01/14 04:28:55;;;;;;;6.28;3.47;;;3.00;63.10;;;;;;4988378;28;20030;-78
2024/01/14 04:31:21;;;;;;;7.55;3.33;;;3.00;63.20;;;;;;5004611;28;20048;-79
2024/01/14 04:33:47;;;;;;;7.97;3.65;;;3.00;63.00;;;;;;4984032;28;20042;-79
2024/01/14 04:36:17;;;;;;;6.25;3.33;;;3.00;62.90;;;;;;5003909;28;20037;-79
2024/01/14 04:38:43;;;;;;;4.63;2.88;;;3.00;62.70;;;;;;5002455;28;20033;-77
2024/01/14 04:41:10;;;;;;;6.35;3.42;;;3.00;62.70;;;;;;5000659;28;20034;-78
2024/01/14 04:43:36;;;;;;;7.00;3.85;;;3.00;62.70;;;;;;4999446;28;20045;-76
2024/01/14 04:46:02;;;;;;;7.10;3.38;;;3.00;62.70;;;;;;5000912;28;20117;-77
2024/01/14 04:48:29;;;;;;;7.43;3.70;;;3.00;62.50;;;;;;5016921;28;20516;-79
2024/01/14 04:50:55;;;;;;;7.53;3.60;;;3.00;62.50;;;;;;5002290;28;20500;-78
2024/01/14 04:53:21;;;;;;;6.40;3.50;;;3.00;62.40;;;;;;5005116;28;20072;-77
2024/01/14 04:55:47;;;;;;;4.18;3.00;;;3.00;62.30;;;;;;4982992;28;20034;-77
2024/01/14 04:58:13;;;;;;;7.32;3.80;;;3.00;62.30;;;;;;4972209;28;20045;-77
2024/01/14 05:00:39;;;;;;;7.05;3.90;;;3.00;62.80;;;;;;5000497;28;20065;-77
2024/01/14 05:03:05;;;;;;;5.22;3.60;;;3.00;62.50;;;;;;4984867;28;20432;-78
2024/01/14 05:05:31;;;;;;;5.50;3.30;;;3.00;62.20;;;;;;5000660;28;20033;-78
2024/01/14 05:07:57;;;;;;;6.53;3.60;;;3.00;62.50;;;;;;5003061;28;20096;-79
2024/01/14 05:10:23;;;;;;;7.20;3.63;;;3.00;62.50;;;;;;5002011;28;20455;-78
2024/01/14 05:12:49;;;;;;;7.25;3.92;;;3.00;62.70;;;;;;4989028;28;20042;-77
2024/01/14 05:15:15;;;;;;;8.30;4.22;;;3.00;62.80;;;;;;5001412;28;20504;-78
2024/01/14 05:17:41;;;;;;;6.32;3.78;;;3.00;62.90;;;;;;5003350;28;20478;-76
2024/01/14 05:20:09;;;;;;;6.32;3.88;;;3.00;63.00;;;;;;5003956;28;20043;-77
2024/01/14 05:22:35;;;;;;;7.72;4.30;;;3.00;62.90;;;;;;4999981;28;20041;-76
2024/01/14 05:25:01;;;;;;;7.25;3.70;;;3.00;63.00;;;;;;4999709;28;20453;-77
2024/01/14 05:27:27;;;;;;;6.90;4.03;;;3.00;62.80;;;;;;5002169;28;20523;-76
2024/01/14 05:29:53;;;;;;;8.55;3.80;;;3.00;62.90;;;;;;5000897;28;20133;-79
2024/01/14 05:32:19;;;;;;;5.68;3.83;;;3.00;63.00;;;;;;4986576;28;20034;-79
2024/01/14 05:34:45;;;;;;;7.60;4.20;;;3.00;62.90;;;;;;5004186;28;20034;-77
2024/01/14 05:37:12;;;;;;;7.50;4.13;;;3.00;62.90;;;;;;5015994;28;20084;-77
2024/01/14 05:39:39;;;;;;;7.00;4.03;;;3.00;62.80;;;;;;5015499;28;20676;-78
2024/01/14 05:42:05;;;;;;;6.38;3.75;;;3.00;62.70;;;;;;5001008;28;20435;-78
2024/01/14 05:44:31;;;;;;;10.50;4.80;;;3.00;63.00;;;;;;4987605;28;20437;-78
2024/01/14 05:46:57;;;;;;;7.10;4.40;;;2.90;62.90;;;;;;5003689;28;20552;-77
2024/01/14 05:49:23;;;;;;;6.53;4.05;;;3.00;62.90;;;;;;5002364;28;20038;-79
2024/01/14 05:51:50;;;;;;;7.72;4.53;;;3.00;62.90;;;;;;5000568;28;20470;-78
2024/01/14 05:54:16;;;;;;;7.63;4.43;;;3.00;62.80;;;;;;4987628;28;20033;-79
2024/01/14 05:56:42;;;;;;;9.45;4.43;;;3.00;62.90;;;;;;5001560;28;20033;-78
2024/01/14 05:59:08;;;;;;;6.70;4.47;;;3.00;63.00;;;;;;5000241;28;20061;-77
2024/01/14 06:01:34;;;;;;;9.35;4.32;;;3.00;62.90;;;;;;5002945;28;20524;-77
2024/01/14 06:04:00;;;;;;;8.15;4.45;;;3.00;62.70;;;;;;5000168;28;20041;-75
2024/01/14 06:06:34;;;;;;;8.60;4.13;;;3.00;62.80;;;;;;5003011;28;20136;-77
2024/01/14 06:09:00;;;;;;;6.80;4.18;;;3.00;62.70;;;;;;5000952;28;20042;-76
2024/01/14 06:11:26;;;;;;;7.32;4.68;;;3.00;62.90;;;;;;5002505;28;20034;-78
2024/01/14 06:13:52;;;;;;;6.90;4.50;;;3.00;62.80;;;;;;4990051;28;20125;-77
2024/01/14 06:16:18;;;;;;;9.77;4.53;;;3.00;62.80;;;;;;5002858;28;20042;-78
2024/01/14 06:18:44;;;;;;;7.10;4.25;;;3.00;62.90;;;;;;4987519;28;20030;-77
2024/01/14 06:21:10;;;;;;;8.05;4.38;;;3.00;62.90;;;;;;5003438;28;20033;-78
2024/01/14 06:23:36;;;;;;;6.07;4.25;;;3.00;62.50;;;;;;5003657;28;20037;-78
2024/01/14 06:26:02;;;;;;;8.85;4.47;;;3.00;62.30;;;;;;5005039;28;20034;-78
2024/01/14 06:28:28;;;;;;;10.00;4.30;;;3.00;62.70;;;;;;5001895;28;20094;-78
2024/01/14 06:30:56;;;;;;;7.32;4.20;;;3.00;61.90;;;;;;5006768;28;20034;-77
2024/01/14 06:33:22;;;;;;;8.35;4.70;;;3.00;61.90;;;;;;5003983;28;20046;-77
2024/01/14 06:35:48;;;;;;;8.35;4.22;;;3.00;62.00;;;;;;5001218;28;20047;-79
2024/01/14 06:38:14;;;;;;;7.85;4.43;;;3.00;61.90;;;;;;5004547;28;20038;-77
2024/01/14 06:40:40;;;;;;;5.72;3.97;;;3.00;61.90;;;;;;5003937;28;20042;-77
2024/01/14 06:43:09;;;;;;;6.93;4.20;;;3.00;61.70;;;;;;5002294;28;20561;-77
2024/01/14 06:45:35;;;;;;;6.40;4.07;;;3.00;61.60;;;;;;5000385;28;20026;-78
2024/01/14 06:48:01;;;;;;;6.78;4.25;;;3.10;61.60;;;;;;5003088;28;20046;-76
2024/01/14 06:50:27;;;;;;;6.72;4.30;;;3.10;61.40;;;;;;5004307;28;20034;-76
2024/01/14 06:52:53;;;;;;;6.93;4.28;;;3.10;61.30;;;;;;4988581;28;20080;-76
2024/01/14 06:55:19;;;;;;;6.85;4.45;;;3.10;61.20;;;;;;5005642;28;20041;-77
2024/01/14 06:57:45;;;;;;;10.73;5.28;;;3.10;61.10;;;;;;5018255;28;20545;-76
2024/01/14 07:00:12;;;;;;;8.25;4.10;;;3.10;60.90;;;;;;4989159;28;20128;-77
2024/01/14 07:02:38;;;;;;;8.85;4.72;;;3.10;60.80;;;;;;5003357;28;20053;-76
2024/01/14 07:05:05;;;;;;;8.15;5.05;;;3.20;60.50;;;;;;5003409;28;20084;-77
2024/01/14 07:07:32;;;;;;;9.75;5.05;;;3.10;60.20;;;;;;5017186;28;20128;-77
2024/01/14 07:09:58;;;;;;;8.80;4.93;;;3.10;59.90;;;;;;5002033;28;20069;-77
2024/01/14 07:12:24;;;;;;;13.52;5.18;;;3.10;60.20;;;;;;5002035;28;20519;-75
2024/01/14 07:14:50;;;;;;;10.77;5.05;;;3.10;59.70;;;;;;4972537;28;20034;-78
2024/01/14 07:17:16;;;;;;;9.50;4.55;;;3.20;59.60;;;;;;5005356;28;20034;-76
2024/01/14 07:19:42;;;;;;;9.18;5.25;;;3.20;59.40;;;;;;5000632;28;20196;-78
2024/01/14 07:22:08;;;;;;;10.38;5.57;;;3.20;59.30;;;;;;5001575;28;20423;-77
2024/01/14 07:24:35;;;;;;;15.20;4.85;;;3.20;59.30;;;;;;5002547;28;20030;-78
2024/01/14 07:27:04;;;;;;;10.93;5.38;;;3.20;59.10;;;;;;4999826;28;20046;-79
2024/01/14 07:29:31;;;;;;;9.10;5.35;;;3.20;59.20;;;;;;5006341;28;20034;-79
2024/01/14 07:32:16;;;;;;;9.35;5.97;;;3.30;59.20;;;;;;4987316;28;20030;-78
2024/01/14 07:34:42;;;;;;;8.98;5.40;;;3.20;59.10;;;;;;5004777;28;20031;-78
2024/01/14 07:37:08;;;;;;;9.90;5.68;;;3.30;59.20;;;;;;5001415;28;20555;-78
2024/01/14 07:39:34;;;;;;;9.90;5.47;;;3.30;59.20;;;;;;5002505;28;20038;-78
2024/01/14 07:42:00;;;;;;;28.98;6.00;;;3.30;59.00;;;;;;5015025;28;20048;-79
2024/01/14 07:44:26;;;;;;;14.20;6.57;;;3.40;59.00;;;;;;5005256;28;20492;-77
2024/01/14 07:46:54;;;;;;;6.82;4.32;;;3.40;58.90;;;;;;5000479;28;20065;-78
2024/01/14 07:49:20;;;;;;;10.70;4.65;;;3.60;75.60;;;;;;4999304;28;20037;-77
2024/01/14 07:51:46;;;;;;;10.70;4.80;;;3.70;70.00;;;;;;5002704;28;20036;-78
2024/01/14 07:54:12;;;;;;;10.63;5.10;;;3.70;68.60;;;;;;5003689;28;20038;-75
2024/01/14 07:56:38;;;;;;;10.07;5.50;;;3.80;67.00;;;;;;5002054;28;20041;-78
2024/01/14 07:59:04;;;;;;;9.90;5.75;;;3.80;65.30;;;;;;5008879;28;20038;-78
2024/01/14 08:01:30;;;;;;;10.90;5.68;;;3.80;64.10;;;;;;5005779;28;20178;-78
2024/01/14 08:03:56;;;;;;;11.20;5.97;;;3.80;63.30;;;;;;5003036;28;20037;-77
2024/01/14 08:06:24;;;;;;;15.82;6.70;;;3.80;62.50;;;;;;5003256;28;20034;-78
2024/01/14 08:08:50;;;;;;;12.88;6.03;;;3.90;62.10;;;;;;5003648;28;20570;-77
2024/01/14 08:11:16;;;;;;;9.55;6.18;;;3.90;61.70;;;;;;5003279;28;20045;-78
2024/01/14 08:13:43;;;;;;;10.35;6.53;;;3.90;61.60;;;;;;4998816;28;20558;-77
2024/01/14 08:16:27;;;;;;;11.63;6.28;;;3.90;61.30;;;;;;4988314;28;20172;-78
2024/01/14 08:18:53;;;;;;;12.05;6.53;;;3.90;61.00;;;;;;4986059;28;20132;-76
2024/01/14 08:21:19;;;;;;;11.93;6.10;;;3.80;60.70;;;;;;4997203;28;22192;-75
2024/01/14 08:23:45;;;;;;;13.23;6.82;;;3.90;60.50;;;;;;5002149;28;20041;-76
2024/01/14 08:26:11;;;;;;;14.07;6.50;;;3.90;60.60;;;;;;4984171;28;20038;-76
2024/01/14 08:28:37;;;;;;;11.45;6.40;;;3.90;60.40;;;;;;4985664;28;20532;-77
2024/01/14 08:31:04;;;;;;;10.98;6.57;;;3.90;60.10;;;;;;5004180;28;20038;-76
2024/01/14 08:33:30;;;;;;;10.35;6.32;;;3.90;60.00;;;;;;5004867;28;20611;-77
2024/01/14 08:35:56;;;;;;;12.15;7.30;;;3.90;59.90;;;;;;5005962;28;20037;-75
2024/01/14 08:38:24;;;;;;;11.32;6.35;;;3.90;59.80;;;;;;5004317;28;20456;-75
2024/01/14 08:40:53;;;;;;;12.68;6.93;;;3.90;59.70;;;;;;5006092;28;20033;-76
2024/01/14 08:43:19;;;;;;;12.20;6.72;;;3.90;59.70;;;;;;5005624;28;20068;-75
2024/01/14 08:45:45;;;;;;;12.57;6.90;;;3.90;59.30;;;;;;5006926;28;20040;-76
2024/01/14 08:48:13;;;;;;;10.93;6.82;;;3.90;59.30;;;;;;4984223;28;20049;-77
2024/01/14 08:50:39;;;;;;;12.95;6.78;;;3.90;59.20;;;;;;5002896;28;20207;-76
2024/01/14 08:53:05;;;;;;;12.55;7.30;;;3.90;58.90;;;;;;5002344;28;20073;-76
2024/01/14 08:55:31;;;;;;;11.60;7.05;;;3.90;58.80;;;;;;4998289;28;20038;-78
2024/01/14 08:57:57;;;;;;;13.73;7.78;;;3.90;58.60;;;;;;5001806;28;20025;-77
2024/01/14 09:00:23;;;;;;;14.18;7.28;;;3.90;58.50;;;;;;5001303;28;20084;-77
2024/01/14 09:02:49;;;;;;;14.13;8.05;;;3.90;58.40;;;;;;4999394;28;20038;-78
2024/01/14 09:05:16;;;;;;;13.32;7.38;;;3.90;58.30;;;;;;5002170;28;20621;-76
2024/01/14 09:07:42;;;;;;;12.43;7.63;;;3.90;58.50;;;;;;5002253;28;20034;-78
2024/01/14 09:10:09;;;;;;;14.23;7.30;;;3.90;58.50;;;;;;4999090;28;20042;-76
2024/01/14 09:12:35;;;;;;;12.85;7.50;;;3.90;58.30;;;;;;4996880;28;20102;-76
2024/01/14 09:15:01;;;;;;;12.38;7.85;;;3.90;58.40;;;;;;4999224;28;20039;-76
2024/01/14 09:17:27;;;;;;;12.93;7.40;;;3.90;58.50;;;;;;4999316;28;20083;-78
2024/01/14 09:19:53;;;;;;;11.45;7.10;;;3.90;58.50;;;;;;5001551;28;20064;-76
2024/01/14 09:22:19;;;;;;;12.80;7.88;;;3.90;58.80;;;;;;4999422;28;20898;-74
2024/01/14 09:24:46;;;;;;;13.05;7.22;;;3.90;59.00;;;;;;4997992;28;20042;-75
2024/01/14 09:27:13;;;;;;;15.38;7.80;;;3.90;59.30;;;;;;4984004;28;20053;-74
2024/01/14 09:29:40;;;;;;;12.38;7.55;;;3.90;59.60;;;;;;5000577;28;20520;-78
2024/01/14 09:32:06;;;;;;;14.10;7.57;;;3.90;59.60;;;;;;4998500;28;20392;-76
2024/01/14 09:34:32;;;;;;;11.93;7.32;;;3.90;60.20;;;;;;4994180;28;20047;-76
2024/01/14 09:36:58;;;;;;;14.55;7.00;;;3.90;59.60;;;;;;4999617;28;20045;-76
2024/01/14 09:39:24;;;;;;;12.90;7.85;;;3.90;59.80;;;;;;4996664;28;20034;-76
2024/01/14 09:42:24;;;;;;;13.50;7.40;;;3.90;59.50;;;;;;4995343;28;20405;-75
2024/01/14 09:45:01;;;;;;;13.82;7.95;;;3.90;59.60;;;;;;5001856;28;20031;-74
2024/01/14 09:47:28;;;;;;;13.13;7.43;;;3.90;59.50;;;;;;5001425;28;20050;-74
2024/01/14 09:49:58;;;;;;;11.85;6.97;;;4.00;59.60;;;;;;5019297;28;20057;-75
2024/01/14 09:52:24;;;;;;;11.93;7.18;;;4.00;59.50;;;;;;5019373;28;20037;-75
2024/01/14 09:54:51;;;;;;;12.48;7.60;;;3.90;59.30;;;;;;5007047;28;20136;-75
2024/01/14 09:57:19;;;;;;;13.73;7.88;;;4.00;59.30;;;;;;5005682;28;20030;-74
2024/01/14 09:59:46;;;;;;;10.52;7.00;;;4.00;59.30;;;;;;5007477;28;20176;-74
2024/01/14 10:02:12;;;;;;;12.40;7.40;;;4.00;59.00;;;;;;5011270;28;20524;-74
2024/01/14 10:04:43;;;;;;;13.02;7.40;;;4.00;59.10;;;;;;5011151;28;20531;-75
2024/01/14 10:07:10;;;;;;;12.68;7.70;;;4.00;59.00;;;;;;5008730;28;20080;-74
2024/01/14 10:09:39;;;;;;;11.30;7.25;;;4.00;58.70;;;;;;5007661;28;20534;-75
2024/01/14 10:12:07;;;;;;;13.60;7.97;;;4.00;58.70;;;;;;5022244;28;20033;-75
2024/01/14 10:14:35;;;;;;;12.55;7.97;;;4.00;58.60;;;;;;5007245;28;20042;-76
2024/01/14 10:17:01;;;;;;;12.85;8.05;;;4.00;58.50;;;;;;4994234;28;20069;-74
2024/01/14 10:19:27;;;;;;;13.32;8.50;;;4.00;58.50;;;;;;5005779;28;20134;-73
2024/01/14 10:21:55;;;;;;;12.45;7.72;;;4.00;58.30;;;;;;5008425;28;20038;-77
2024/01/14 10:24:22;;;;;;;13.10;8.10;;;4.00;58.80;;;;;;4978905;28;20074;-74
2024/01/14 10:26:55;;;;;;;13.23;8.40;;;4.00;58.70;;;;;;5009506;28;20049;-75
2024/01/14 10:29:22;;;;;;;13.85;8.35;;;4.00;59.60;;;;;;5008174;28;20780;-75
2024/01/14 10:31:48;;;;;;;13.23;8.55;;;4.00;59.70;;;;;;5022758;28;20034;-74
2024/01/14 10:34:18;;;;;;;13.63;8.30;;;4.00;59.80;;;;;;5008159;28;20034;-75
2024/01/14 10:36:45;;;;;;;14.10;8.45;;;4.00;59.60;;;;;;5008165;28;20029;-74
2024/01/14 10:39:12;;;;;;;12.60;8.13;;;4.00;59.70;;;;;;5012698;28;20599;-75
2024/01/14 10:41:39;;;;;;;13.57;8.82;;;4.00;59.70;;;;;;5007098;28;20428;-73
2024/01/14 10:44:06;;;;;;;13.40;8.30;;;4.10;59.90;;;;;;5011575;28;20061;-75
2024/01/14 10:46:34;;;;;;;13.20;8.50;;;4.10;60.00;;;;;;5007404;28;20081;-73
2024/01/14 10:49:08;;;;;;;13.48;8.15;;;4.00;60.10;;;;;;5005970;28;20065;-73
2024/01/14 10:51:42;;;;;;;12.10;7.53;;;4.10;60.40;;;;;;5005815;28;20034;-73
2024/01/14 10:54:17;;;;;;;13.50;7.75;;;4.10;60.60;;;;;;5007029;28;20038;-78
2024/01/14 10:56:50;;;;;;;14.55;8.73;;;4.10;60.80;;;;;;5007500;28;20476;-73
2024/01/14 10:59:21;;;;;;;11.38;7.93;;;4.10;61.10;;;;;;5006824;28;20069;-73
2024/01/14 11:01:55;;;;;;;12.52;7.88;;;4.10;61.10;;;;;;5006644;28;20032;-73
2024/01/14 11:04:22;;;;;;;14.15;7.47;;;4.10;61.20;;;;;;5004984;28;20038;-75
2024/01/14 11:06:55;;;;;;;14.02;7.57;;;4.10;61.10;;;;;;5006419;28;20053;-72
2024/01/14 11:09:22;;;;;;;12.30;7.93;;;4.10;61.20;;;;;;5004280;28;20056;-73
2024/01/14 11:11:57;;;;;;;13.07;7.78;;;4.10;61.10;;;;;;5005462;28;20093;-75
2024/01/14 11:14:48;;;;;;;12.98;7.75;;;4.10;61.10;;;;;;5007062;28;20102;-77
2024/01/14 11:18:01;;;;;;;12.48;7.93;;;4.20;61.20;;;;;;4989637;28;20042;-75
2024/01/14 11:20:34;;;;;;;13.57;8.25;;;4.10;61.40;;;;;;5005292;28;20462;-75
2024/01/14 11:23:01;;;;;;;11.88;7.32;;;4.10;61.40;;;;;;5005320;28;20408;-75
2024/01/14 11:25:35;;;;;;;11.57;7.97;;;4.10;61.40;;;;;;5006583;28;20501;-76
2024/01/14 11:28:05;;;;;;;13.20;7.47;;;4.10;61.10;;;;;;4994562;28;20042;-75
2024/01/14 11:30:51;;;;;;;15.27;8.13;;;4.10;61.60;;;;;;5010775;28;20610;-75
2024/01/14 11:33:42;;;;;;;13.27;7.40;;;4.20;61.10;;;;;;5009862;28;20030;-75
2024/01/14 11:36:09;;;;;;;10.40;6.88;;;4.10;61.10;;;;;;5010396;28;20035;-75
2024/01/14 11:38:36;;;;;;;11.25;7.00;;;4.20;61.00;;;;;;5011923;28;20041;-78
2024/01/14 11:41:28;;;;;;;12.45;7.60;;;4.20;61.00;;;;;;5011045;28;20501;-82
2024/01/14 11:44:09;;;;;;;13.95;7.53;;;4.20;60.90;;;;;;4995588;28;20137;-81
2024/01/14 11:46:39;;;;;;;15.05;7.70;;;4.20;60.70;;;;;;5015249;28;20141;-77
2024/01/14 11:49:17;;;;;;;10.43;6.85;;;4.20;60.60;;;;;;5025567;28;20122;-78
2024/01/14 11:51:57;;;;;;;11.15;7.22;;;4.20;60.60;;;;;;5026566;28;20029;-77
2024/01/14 11:54:24;;;;;;;10.40;6.55;;;4.20;60.40;;;;;;4997165;28;20053;-79
2024/01/14 11:56:51;;;;;;;14.70;8.20;;;4.20;60.30;;;;;;5016085;28;20080;-78
2024/01/14 11:59:18;;;;;;;11.35;6.82;;;4.20;60.40;;;;;;4998506;28;20116;-79
2024/01/14 12:01:45;;;;;;;13.25;7.30;;;4.20;60.40;;;;;;5017712;28;20048;-78
2024/01/14 12:04:11;;;;;;;12.40;7.35;;;4.20;60.40;;;;;;5018765;28;20081;-79
2024/01/14 12:06:49;;;;;;;13.27;7.53;;;4.20;60.50;;;;;;5017583;28;20041;-80
2024/01/14 12:09:17;;;;;;;11.70;7.20;;;4.10;60.60;;;;;;5020306;28;20045;-82
2024/01/14 12:11:43;;;;;;;10.27;6.68;;;4.10;60.80;;;;;;5014722;28;20041;-79
2024/01/14 12:14:10;;;;;;;12.15;6.90;;;4.20;61.00;;;;;;5018287;28;20531;-75
2024/01/14 12:16:38;;;;;;;11.85;6.80;;;4.20;61.20;;;;;;5016895;28;20204;-75
2024/01/14 12:19:20;;;;;;;12.07;7.30;;;4.20;61.40;;;;;;5014494;28;20123;-74
2024/01/14 12:21:46;;;;;;;12.57;6.75;;;4.10;61.40;;;;;;5013280;28;20093;-74
2024/01/14 12:24:13;;;;;;;9.35;6.55;;;4.20;61.70;;;;;;5014138;28;20213;-76
2024/01/14 12:26:44;;;;;;;12.02;6.93;;;4.20;61.70;;;;;;5013696;28;20302;-75
2024/01/14 12:29:10;;;;;;;11.18;7.00;;;4.10;61.60;;;;;;5011953;28;20034;-81
2024/01/14 12:31:36;;;;;;;13.93;6.90;;;4.20;61.70;;;;;;5007993;28;20038;-79
2024/01/14 12:34:05;;;;;;;11.55;7.20;;;4.20;61.50;;;;;;4997013;28;20408;-77
2024/01/14 12:36:33;;;;;;;11.20;7.00;;;4.20;61.50;;;;;;5010044;28;20034;-77
2024/01/14 12:38:59;;;;;;;15.05;8.05;;;4.20;61.50;;;;;;5007788;28;20641;-75
2024/01/14 12:41:25;;;;;;;9.82;6.80;;;4.20;61.40;;;;;;5006413;28;20042;-75
2024/01/14 12:43:51;;;;;;;9.93;6.43;;;4.20;61.60;;;;;;5007891;28;20518;-76
2024/01/14 12:46:19;;;;;;;13.23;7.20;;;4.20;61.60;;;;;;5009272;28;20103;-75
2024/01/14 12:48:45;;;;;;;11.20;7.10;;;4.20;61.70;;;;;;5009867;28;20140;-75
2024/01/14 12:51:17;;;;;;;11.80;6.90;;;4.20;61.70;;;;;;5009710;28;20038;-76
2024/01/14 12:53:43;;;;;;;10.68;6.72;;;4.20;61.70;;;;;;5010016;28;20038;-78